Time;durP1;ratioP1;P1;durP2;ratioP2;P2;SDS_P1;SDS_P2;PMS_P1;PMS_P2;Temp;Humidity;BMP_temperature;BMP_pressure;BME280_temperature;BME280_humidity;BME280_pressure;Samples;Min_cycle;Max_cycle;Signal;HPM_P1;HPM_P2
2023/10/06 00:01:31;;;;;;;15.70;7.50;;;;;;;9.05;100.00;101360.71;105920;1254;64672;-49
2023/10/06 00:04:06;;;;;;;27.90;8.10;;;;;;;9.03;100.00;101365.70;105922;1256;72561;-51
2023/10/06 00:06:37;;;;;;;24.30;8.00;;;;;;;9.02;100.00;101363.29;105837;1254;61981;-49
2023/10/06 00:09:06;;;;;;;20.50;8.10;;;;;;;9.03;100.00;101367.94;105886;1253;60392;-49
2023/10/06 00:11:33;;;;;;;23.60;8.70;;;;;;;9.04;100.00;101371.21;105909;1254;72476;-48
2023/10/06 00:14:00;;;;;;;24.10;7.20;;;;;;;9.03;100.00;101376.02;105931;1254;64523;-49
2023/10/06 00:16:33;;;;;;;21.10;7.60;;;;;;;9.02;100.00;101379.98;105947;1254;72481;-49
2023/10/06 00:19:20;;;;;;;21.70;7.40;;;;;;;9.01;100.00;101388.07;105930;1256;62143;-49
2023/10/06 00:21:53;;;;;;;20.00;7.40;;;;;;;8.99;100.00;101394.61;105914;1254;60437;-49
2023/10/06 00:24:25;;;;;;;19.60;7.70;;;;;;;8.97;100.00;101402.17;105897;1256;73937;-49
2023/10/06 00:26:53;;;;;;;19.30;8.20;;;;;;;8.93;100.00;101412.83;105898;1256;64757;-50
2023/10/06 00:29:22;;;;;;;28.20;7.70;;;;;;;8.89;100.00;101419.02;105887;1256;72479;-49
2023/10/06 00:31:49;;;;;;;19.90;7.20;;;;;;;8.90;100.00;101426.08;105924;1257;61963;-49
2023/10/06 00:34:19;;;;;;;16.40;7.10;;;;;;;8.90;100.00;101424.02;105835;1254;60450;-49
2023/10/06 00:36:52;;;;;;;23.30;8.50;;;;;;;8.95;100.00;101419.38;105831;1257;73816;-50
2023/10/06 00:39:23;;;;;;;21.00;8.30;;;;;;;9.00;100.00;101418.73;105880;1256;64550;-52
2023/10/06 00:41:56;;;;;;;20.30;7.70;;;;;;;9.03;100.00;101408.73;105901;1252;72688;-52
2023/10/06 00:44:23;;;;;;;22.30;7.80;;;;;;;9.06;100.00;101400.65;105914;1254;61923;-52
2023/10/06 00:46:50;;;;;;;26.60;8.50;;;;;;;9.11;100.00;101388.10;105899;1253;60418;-51
2023/10/06 00:49:18;;;;;;;27.20;7.70;;;;;;;9.19;100.00;101372.61;105936;1254;73719;-48
2023/10/06 00:51:47;;;;;;;19.60;8.20;;;;;;;9.25;100.00;101347.31;105951;1256;64634;-50
2023/10/06 00:54:14;;;;;;;20.00;9.20;;;;;;;9.28;100.00;101317.52;105925;1256;72425;-50
2023/10/06 00:56:41;;;;;;;19.10;8.10;;;;;;;9.32;100.00;101284.79;105885;1256;60345;-52
2023/10/06 00:59:11;;;;;;;30.70;8.10;;;;;;;9.32;100.00;101252.74;105856;1252;60462;-50
2023/10/06 01:01:41;;;;;;;22.40;8.90;;;;;;;9.33;100.00;101222.08;105862;1256;72835;-48
2023/10/06 01:04:08;;;;;;;24.20;8.10;;;;;;;9.40;100.00;101188.32;105620;1254;64775;-49
2023/10/06 01:06:41;;;;;;;28.80;8.60;;;;;;;9.43;100.00;101147.29;105950;1254;73886;-47
2023/10/06 01:11:51;;;;;;;21.20;9.70;;;;;;;9.55;100.00;101083.17;105987;1254;60395;-49
2023/10/06 01:14:22;;;;;;;24.00;8.50;;;;;;;9.60;100.00;101049.20;105695;1252;73795;-49
2023/10/06 01:16:50;;;;;;;29.10;8.10;;;;;;;9.62;100.00;101013.52;105849;1255;63308;-49
2023/10/06 01:19:26;;;;;;;21.30;8.30;;;;;;;9.67;100.00;100981.09;105929;1254;71097;-49
2023/10/06 01:21:53;;;;;;;24.70;8.10;;;;;;;9.71;100.00;100949.52;105838;1256;61952;-48
2023/10/06 01:24:24;;;;;;;17.20;7.90;;;;;;;9.73;100.00;100925.91;105832;1252;60597;-49
2023/10/06 01:26:59;;;;;;;27.60;8.70;;;;;;;9.74;100.00;100900.75;105925;1254;73607;-50
2023/10/06 01:29:29;;;;;;;24.40;9.10;;;;;;;9.78;100.00;100874.70;105835;1258;64650;-49
2023/10/06 01:31:56;;;;;;;16.90;8.70;;;;;;;9.82;100.00;100842.42;105688;1259;72528;-48
2023/10/06 01:34:27;;;;;;;21.20;8.90;;;;;;;9.86;100.00;100813.95;105797;1254;61920;-49
2023/10/06 01:36:54;;;;;;;18.70;8.30;;;;;;;9.90;100.00;100778.90;105691;1253;60479;-48
2023/10/06 01:39:25;;;;;;;27.40;8.30;;;;;;;9.95;100.00;100741.60;105844;1252;73662;-49
2023/10/06 01:41:53;;;;;;;17.00;8.30;;;;;;;9.98;100.00;100712.45;105940;1254;63258;-49
2023/10/06 01:44:20;;;;;;;25.20;9.10;;;;;;;10.00;100.00;100687.25;105967;1254;72604;-48
2023/10/06 01:46:53;;;;;;;23.40;8.80;;;;;;;10.03;100.00;100671.86;105887;1256;60440;-48
2023/10/06 01:49:21;;;;;;;19.70;8.40;;;;;;;10.08;100.00;100646.10;105960;1254;60486;-48
2023/10/06 01:51:53;;;;;;;26.00;9.00;;;;;;;10.11;100.00;100624.86;105898;1254;71507;-48
2023/10/06 01:54:27;;;;;;;23.00;9.20;;;;;;;10.13;100.00;100609.67;105845;1257;64714;-49
2023/10/06 01:56:54;;;;;;;18.20;8.30;;;;;;;10.14;100.00;100597.92;105835;1254;72452;-49
2023/10/06 01:59:22;;;;;;;20.50;8.50;;;;;;;10.18;100.00;100587.16;105870;1256;61921;-48
2023/10/06 02:01:49;;;;;;;24.10;8.90;;;;;;;10.23;100.00;100570.55;105889;1254;60480;-48
2023/10/06 02:04:18;;;;;;;23.40;8.90;;;;;;;10.25;100.00;100556.71;105892;1256;73835;-48
2023/10/06 02:06:45;;;;;;;22.70;8.60;;;;;;;10.29;100.00;100546.82;105890;1256;64734;-48
2023/10/06 02:09:15;;;;;;;25.20;8.80;;;;;;;10.31;100.00;100538.50;105878;1254;72514;-48
2023/10/06 02:11:42;;;;;;;18.50;8.30;;;;;;;10.35;100.00;100531.88;105929;1253;61392;-48
2023/10/06 02:14:17;;;;;;;22.10;8.70;;;;;;;10.38;100.00;100518.38;105840;1254;60552;-48
2023/10/06 02:16:48;;;;;;;23.10;7.90;;;;;;;10.39;100.00;100513.02;105913;1253;73891;-49
2023/10/06 02:19:18;;;;;;;19.10;8.90;;;;;;;10.38;100.00;100503.05;105898;1256;64504;-49
2023/10/06 02:21:46;;;;;;;21.60;8.50;;;;;;;10.38;100.00;100501.83;105854;1258;72669;-49
2023/10/06 02:24:16;;;;;;;23.80;8.20;;;;;;;10.40;100.00;100493.88;105863;1256;60382;-49
2023/10/06 02:26:57;;;;;;;18.00;7.40;;;;;;;10.42;100.00;100487.81;105903;1256;60456;-48
2023/10/06 02:29:24;;;;;;;27.70;8.10;;;;;;;10.47;100.00;100486.17;105883;1253;73818;-49
2023/10/06 02:31:52;;;;;;;22.60;8.70;;;;;;;10.49;100.00;100481.48;105908;1254;63335;-49
2023/10/06 02:34:29;;;;;;;26.00;9.00;;;;;;;10.53;100.00;100475.04;105890;1254;73073;-50
2023/10/06 02:36:56;;;;;;;27.70;8.00;;;;;;;10.55;100.00;100465.66;105691;1260;60369;-48
2023/10/06 02:39:28;;;;;;;24.10;8.30;;;;;;;10.55;100.00;100466.38;105918;1256;60613;-49
2023/10/06 02:41:57;;;;;;;14.10;7.50;;;;;;;10.54;100.00;100463.10;105683;1259;73803;-49
2023/10/06 02:44:25;;;;;;;23.10;8.00;;;;;;;10.55;100.00;100464.11;105719;1258;64605;-49
2023/10/06 02:46:52;;;;;;;23.10;8.50;;;;;;;10.56;100.00;100459.95;105855;1257;72691;-50
2023/10/06 02:49:32;;;;;;;23.00;8.20;;;;;;;10.57;100.00;100457.01;105876;1254;60429;-49
2023/10/06 02:52:00;;;;;;;28.90;8.50;;;;;;;10.56;100.00;100452.55;105860;1254;60398;-49
2023/10/06 02:54:28;;;;;;;25.50;8.30;;;;;;;10.58;100.00;100443.54;105735;1259;73788;-48
2023/10/06 02:56:56;;;;;;;22.00;8.50;;;;;;;10.62;100.00;100446.56;105906;1257;63368;-50
2023/10/06 02:59:26;;;;;;;21.10;8.00;;;;;;;10.64;100.00;100445.66;105943;1254;72773;-48
2023/10/06 03:01:59;;;;;;;23.50;8.20;;;;;;;10.66;100.00;100446.67;105870;1254;60476;-48
2023/10/06 03:04:27;;;;;;;16.90;7.50;;;;;;;10.67;100.00;100443.70;105871;1256;60300;-48
2023/10/06 03:06:58;;;;;;;17.40;7.60;;;;;;;10.64;100.00;100446.88;105925;1256;73596;-47
2023/10/06 03:09:38;;;;;;;19.00;7.80;;;;;;;10.60;100.00;100443.49;105910;1256;62664;-48
2023/10/06 03:14:56;;;;;;;20.00;7.40;;;;;;;10.53;100.00;100445.37;105910;1256;61904;-49
2023/10/06 03:17:24;;;;;;;24.00;7.50;;;;;;;10.49;100.00;100442.33;105886;1254;60434;-48
2023/10/06 03:20:10;;;;;;;28.70;8.50;;;;;;;10.52;100.00;100455.73;105824;1259;73505;-50
2023/10/06 03:22:38;;;;;;;22.90;7.00;;;;;;;10.63;100.00;100467.08;105920;1256;64662;-49
2023/10/06 03:25:17;;;;;;;14.70;6.60;;;;;;;10.82;100.00;100466.91;105946;1254;72559;-48
2023/10/06 03:27:49;;;;;;;18.40;6.80;;;;;;;11.03;100.00;100458.55;105900;1256;60652;-49
2023/10/06 03:30:33;;;;;;;13.30;6.10;;;;;;;11.24;100.00;100441.52;105906;1254;60472;-49
2023/10/06 03:33:11;;;;;;;15.40;6.60;;;;;;;11.47;100.00;100428.43;105964;1255;73810;-50
2023/10/06 03:35:45;;;;;;;18.50;6.20;;;;;;;11.62;100.00;100430.67;105937;1256;63402;-49
2023/10/06 03:41:04;;;;;;;12.30;6.10;;;;;;;11.75;100.00;100458.56;105923;1256;60431;-49
2023/10/06 03:43:48;;;;;;;11.70;6.00;;;;;;;11.75;100.00;100463.39;105700;1254;60533;-49
2023/10/06 03:46:19;;;;;;;14.60;6.60;;;;;;;11.75;100.00;100483.61;105758;1259;73726;-49
2023/10/06 03:48:48;;;;;;;17.10;6.90;;;;;;;11.78;100.00;100494.63;105704;1259;64641;-50
2023/10/06 03:51:17;;;;;;;19.20;6.70;;;;;;;11.81;100.00;100507.02;105718;1257;72392;-49
2023/10/06 03:53:45;;;;;;;18.30;6.40;;;;;;;11.83;100.00;100513.71;105932;1254;60440;-48
2023/10/06 03:56:12;;;;;;;13.00;6.60;;;;;;;11.80;100.00;100514.98;105907;1254;60427;-48
2023/10/06 03:58:39;;;;;;;15.00;6.10;;;;;;;11.76;100.00;100512.13;105996;1254;74302;-50
2023/10/06 04:01:14;;;;;;;15.60;6.50;;;;;;;11.75;100.00;100508.36;105949;1257;64349;-51
2023/10/06 04:03:40;;;;;;;21.30;7.40;;;;;;;11.75;100.00;100514.23;105782;1254;72607;-49
2023/10/06 04:06:12;;;;;;;18.10;6.90;;;;;;;11.75;100.00;100515.95;105811;1257;60439;-49
2023/10/06 04:08:48;;;;;;;16.30;7.30;;;;;;;11.74;100.00;100517.52;105990;1254;60427;-48
2023/10/06 04:11:16;;;;;;;22.10;6.90;;;;;;;11.73;100.00;100511.34;105876;1256;73818;-50
2023/10/06 04:13:43;;;;;;;14.30;6.10;;;;;;;11.71;100.00;100502.91;105837;1256;64536;-49
2023/10/06 04:16:14;;;;;;;14.60;6.80;;;;;;;11.71;100.00;100499.27;105894;1254;72647;-48
2023/10/06 04:18:47;;;;;;;16.40;7.20;;;;;;;11.73;100.00;100501.64;105871;1257;60902;-50
2023/10/06 04:21:14;;;;;;;17.10;6.70;;;;;;;11.77;100.00;100506.40;105961;1253;60546;-46
2023/10/06 04:23:43;;;;;;;14.10;6.90;;;;;;;11.78;100.00;100509.50;105853;1256;73848;-49
2023/10/06 04:26:11;;;;;;;14.50;6.40;;;;;;;11.77;100.00;100508.66;105897;1256;64742;-48
2023/10/06 04:28:38;;;;;;;13.70;7.00;;;;;;;11.78;100.00;100507.42;105870;1254;72589;-48
2023/10/06 04:31:05;;;;;;;16.50;5.90;;;;;;;11.76;100.00;100499.86;105934;1256;60335;-49
2023/10/06 04:33:32;;;;;;;15.40;6.80;;;;;;;11.75;100.00;100497.11;105922;1254;60546;-48
2023/10/06 04:36:08;;;;;;;15.50;6.40;;;;;;;11.73;100.00;100487.81;105883;1257;73782;-48
2023/10/06 04:38:39;;;;;;;14.20;6.00;;;;;;;11.70;100.00;100486.52;105913;1257;64587;-48
2023/10/06 04:41:08;;;;;;;16.50;6.80;;;;;;;11.68;100.00;100481.38;105854;1256;72619;-48
2023/10/06 04:43:44;;;;;;;16.70;6.00;;;;;;;11.67;100.00;100481.91;105917;1254;61821;-49
2023/10/06 04:46:12;;;;;;;14.00;6.20;;;;;;;11.67;100.00;100483.11;105917;1254;60437;-47
2023/10/06 04:48:39;;;;;;;18.40;7.10;;;;;;;11.69;100.00;100486.18;105920;1254;72821;-49
2023/10/06 04:51:09;;;;;;;17.10;7.00;;;;;;;11.71;100.00;100482.84;105893;1256;64470;-47
2023/10/06 04:53:36;;;;;;;20.60;6.30;;;;;;;11.74;100.00;100481.92;105920;1256;72476;-50
2023/10/06 04:56:04;;;;;;;20.00;6.50;;;;;;;11.77;100.00;100482.91;105972;1256;60503;-48
2023/10/06 04:58:31;;;;;;;17.50;6.50;;;;;;;11.80;100.00;100477.82;105895;1254;60512;-50
2023/10/06 05:01:02;;;;;;;15.50;6.40;;;;;;;11.84;100.00;100481.16;105899;1256;73628;-49
2023/10/06 05:03:41;;;;;;;15.10;6.60;;;;;;;11.88;100.00;100490.42;105910;1256;64479;-51
2023/10/06 05:06:15;;;;;;;19.90;6.60;;;;;;;11.93;100.00;100496.35;105693;1256;336871;-48
2023/10/06 05:10:27;;;;;;;14.70;6.60;;;;;;;12.03;100.00;100491.65;102502;1295;603439;-48
2023/10/06 05:12:55;;;;;;;19.90;6.20;;;;;;;12.09;100.00;100496.02;105593;1271;61967;-49
2023/10/06 05:15:30;;;;;;;17.50;6.80;;;;;;;12.15;100.00;100499.67;105552;1259;60032;-48
2023/10/06 05:17:58;;;;;;;14.80;6.70;;;;;;;12.19;100.00;100487.80;105578;1262;72126;-49
2023/10/06 05:20:32;;;;;;;19.40;7.20;;;;;;;12.25;100.00;100499.61;105485;1265;63626;-49
2023/10/06 05:23:05;;;;;;;21.80;6.60;;;;;;;12.31;100.00;100524.90;105339;1262;332239;-50
2023/10/06 05:25:33;;;;;;;22.50;6.40;;;;;;;12.38;100.00;100547.75;105588;1260;59176;-49
2023/10/06 05:28:01;;;;;;;14.70;6.20;;;;;;;12.43;100.00;100547.27;105683;1256;60522;-49
2023/10/06 05:30:28;;;;;;;19.50;6.60;;;;;;;12.51;100.00;100543.27;105709;1258;72133;-49
2023/10/06 05:32:58;;;;;;;27.70;6.20;;;;;;;12.55;100.00;100549.41;105630;1260;64659;-49
2023/10/06 05:35:38;;;;;;;19.40;7.10;;;;;;;12.59;100.00;100559.52;105662;1260;72179;-49
2023/10/06 05:38:12;;;;;;;15.10;5.60;;;;;;;12.61;100.00;100557.89;105664;1259;60753;-48
2023/10/06 05:40:40;;;;;;;18.60;7.30;;;;;;;12.63;100.00;100572.73;105584;1259;60428;-48
2023/10/06 05:43:16;;;;;;;20.80;5.90;;;;;;;12.63;100.00;100574.48;105618;1257;72735;-49
2023/10/06 05:45:43;;;;;;;;;;;;;;;12.62;100.00;100587.31;105647;1260;63544;-48
2023/10/06 05:48:15;;;;;;;22.00;6.20;;;;;;;12.61;100.00;100587.35;105670;1259;72605;-49
2023/10/06 05:50:43;;;;;;;18.60;6.70;;;;;;;12.60;100.00;100588.56;105717;1260;60338;-48
2023/10/06 05:53:19;;;;;;;19.20;6.30;;;;;;;12.60;100.00;100590.65;105648;1258;60354;-49
2023/10/06 05:55:49;;;;;;;16.60;7.20;;;;;;;12.59;100.00;100599.52;105659;1259;73128;-48
2023/10/06 05:58:19;;;;;;;27.10;6.80;;;;;;;12.58;100.00;100606.10;105697;1260;64689;-48
2023/10/06 06:01:06;;;;;;;28.90;6.00;;;;;;;12.57;100.00;100599.56;105600;1260;72626;-49
2023/10/06 06:03:33;;;;;;;12.70;6.00;;;;;;;12.59;100.00;100588.77;105609;1259;61932;-49
2023/10/06 06:06:08;;;;;;;21.70;6.80;;;;;;;12.59;100.00;100575.77;105616;1260;60090;-48
2023/10/06 06:08:38;;;;;;;19.80;7.10;;;;;;;12.60;100.00;100572.30;105535;1263;71530;-49
2023/10/06 06:11:06;;;;;;;20.30;6.70;;;;;;;12.61;100.00;100573.84;105651;1262;64686;-50
2023/10/06 06:13:36;;;;;;;18.70;6.90;;;;;;;12.64;100.00;100563.55;105660;1262;72747;-50
2023/10/06 06:16:04;;;;;;;17.40;6.60;;;;;;;12.70;100.00;100554.58;105625;1263;60818;-49
2023/10/06 06:18:33;;;;;;;12.60;6.20;;;;;;;12.77;100.00;100545.05;105613;1258;60270;-49
2023/10/06 06:21:02;;;;;;;14.70;6.80;;;;;;;12.84;100.00;100532.38;105666;1257;71843;-50
2023/10/06 06:23:33;;;;;;;14.00;6.00;;;;;;;12.89;100.00;100527.42;105617;1263;64561;-49
2023/10/06 06:26:00;;;;;;;15.60;6.40;;;;;;;12.91;100.00;100524.06;105576;1257;72626;-47
2023/10/06 06:28:28;;;;;;;24.20;7.00;;;;;;;12.92;100.00;100518.50;105613;1263;60338;-50
2023/10/06 06:30:55;;;;;;;19.40;6.30;;;;;;;12.94;100.00;100506.66;105645;1261;60347;-48
2023/10/06 06:33:25;;;;;;;15.70;6.40;;;;;;;12.97;100.00;100507.64;105579;1261;73143;-50
2023/10/06 06:35:52;;;;;;;21.10;6.40;;;;;;;12.99;100.00;100501.49;105618;1260;63720;-49
2023/10/06 06:38:19;;;;;;;13.90;6.50;;;;;;;13.03;100.00;100499.35;105619;1258;72603;-49
2023/10/06 06:40:49;;;;;;;22.10;6.60;;;;;;;13.07;100.00;100498.34;105532;1263;60827;-50
2023/10/06 06:43:19;;;;;;;23.50;6.30;;;;;;;13.13;100.00;100495.94;105432;1257;60023;-50
2023/10/06 06:45:46;;;;;;;28.00;7.00;;;;;;;13.21;100.00;100494.99;105335;1258;72084;-51
2023/10/06 06:48:13;;;;;;;29.80;6.70;;;;;;;13.29;100.00;100497.56;105682;1262;64519;-52
2023/10/06 06:50:43;;;;;;;45.20;7.40;;;;;;;13.39;100.00;100492.05;105581;1258;72596;-51
2023/10/06 06:53:11;;;;;;;64.90;8.20;;;;;;;13.48;100.00;100485.41;105624;1261;59570;-49
2023/10/06 06:55:38;;;;;;;57.60;7.80;;;;;;;13.55;100.00;100483.33;105646;1259;60302;-52
2023/10/06 06:58:12;;;;;;;53.20;7.90;;;;;;;13.56;100.00;100486.56;105664;1257;72899;-49
2023/10/06 07:00:42;;;;;;;28.60;6.50;;;;;;;13.56;100.00;100478.41;105509;1261;64756;-48
2023/10/06 07:03:10;;;;;;;66.40;8.30;;;;;;;13.57;100.00;100471.96;105613;1257;72666;-49
2023/10/06 07:05:38;;;;;;;99.80;9.60;;;;;;;13.60;100.00;100464.94;105602;1263;61888;-50
2023/10/06 07:08:05;;;;;;;135.00;10.20;;;;;;;13.68;100.00;100456.91;105633;1257;60347;-50
2023/10/06 07:10:34;;;;;;;38.50;7.20;;;;;;;13.75;100.00;100453.02;105605;1260;73020;-49
2023/10/06 07:13:01;;;;;;;48.40;6.80;;;;;;;13.82;100.00;100451.10;105596;1263;64741;-50
2023/10/06 07:15:29;;;;;;;17.30;6.30;;;;;;;13.91;100.00;100441.44;105591;1258;72525;-48
2023/10/06 07:17:57;;;;;;;31.60;6.90;;;;;;;14.09;100.00;100435.63;105608;1260;61976;-48
2023/10/06 07:20:27;;;;;;;26.50;6.90;;;;;;;14.38;100.00;100428.23;105643;1257;60294;-49
2023/10/06 07:22:55;;;;;;;22.40;7.30;;;;;;;14.65;100.00;100437.90;105681;1258;71633;-49
2023/10/06 07:25:26;;;;;;;24.80;6.80;;;;;;;14.83;100.00;100445.27;105597;1263;64669;-50
2023/10/06 07:27:58;;;;;;;11.90;6.30;;;;;;;14.93;100.00;100466.45;105618;1261;72755;-49
2023/10/06 07:30:29;;;;;;;18.00;5.90;;;;;;;15.01;100.00;100484.94;105768;1257;59721;-48
2023/10/06 07:32:56;;;;;;;31.50;6.70;;;;;;;15.09;100.00;100499.94;105596;1258;60372;-50
2023/10/06 07:35:36;;;;;;;33.60;7.20;;;;;;;15.17;100.00;100520.67;105579;1256;72895;-48
2023/10/06 07:38:03;;;;;;;34.20;7.10;;;;;;;15.24;100.00;100537.27;105604;1262;64553;-49
2023/10/06 07:40:31;;;;;;;35.10;7.20;;;;;;;15.28;100.00;100555.91;105585;1257;72670;-49
2023/10/06 07:42:58;;;;;;;75.00;8.80;;;;;;;15.34;100.00;100566.16;105866;1256;60337;-49
2023/10/06 07:45:26;;;;;;;47.50;8.00;;;;;;;15.45;100.00;100564.86;105882;1254;60343;-50
2023/10/06 07:47:54;;;;;;;46.80;5.70;;;;;;;15.46;100.00;100594.36;105903;1254;73542;-49
2023/10/06 07:50:21;;;;;;;21.90;5.80;;;;;;;15.35;100.00;100643.81;105835;1257;64579;-50
2023/10/06 07:52:48;;;;;;;25.80;5.70;;;;;;;15.30;100.00;100646.25;105850;1254;72594;-49
2023/10/06 07:55:16;;;;;;;14.50;4.60;;;;;;;15.29;100.00;100650.45;105841;1257;60249;-50
2023/10/06 07:57:47;;;;;;;18.90;4.90;;;;;;;15.22;100.00;100679.71;105879;1254;60265;-50
2023/10/06 08:00:27;;;;;;;13.10;4.40;;;;;;;15.15;100.00;100694.55;105930;1257;72899;-51
2023/10/06 08:02:55;;;;;;;32.50;4.60;;;;;;;15.01;100.00;100707.89;105847;1257;64631;-50
2023/10/06 08:05:22;;;;;;;33.70;4.60;;;;;;;14.87;100.00;100717.55;105882;1254;72453;-51
2023/10/06 08:07:49;;;;;;;20.50;3.80;;;;;;;14.78;100.00;100723.36;105867;1257;60209;-50
2023/10/06 08:10:18;;;;;;;19.20;3.90;;;;;;;14.88;100.00;100728.64;105807;1264;60828;-52
2023/10/06 08:12:46;;;;;;;11.40;3.30;;;;;;;14.94;100.00;100741.30;105897;1254;72898;-50
2023/10/06 08:15:17;;;;;;;22.80;4.10;;;;;;;14.95;100.00;100750.27;105888;1256;64691;-49
2023/10/06 08:17:50;;;;;;;16.90;3.20;;;;;;;15.08;100.00;100751.98;105889;1254;72681;-50
2023/10/06 08:20:17;;;;;;;18.10;3.40;;;;;;;15.29;100.00;100757.20;105884;1255;59704;-50
2023/10/06 08:22:47;;;;;;;29.10;4.50;;;;;;;15.39;100.00;100775.48;105885;1254;60277;-47
2023/10/06 08:25:14;;;;;;;81.10;6.50;;;;;;;15.42;100.00;100795.21;105866;1255;73062;-53
2023/10/06 08:27:42;;;;;;;26.40;3.90;;;;;;;15.50;100.00;100792.33;105880;1254;64497;-52
2023/10/06 08:30:16;;;;;;;57.30;5.40;;;;;;;15.62;100.00;100797.66;105822;1254;72720;-50
2023/10/06 08:32:48;;;;;;;70.30;5.50;;;;;;;15.76;100.00;100809.20;105855;1257;60385;-51
2023/10/06 08:35:16;;;;;;;38.60;3.80;;;;;;;15.95;100.00;100821.08;105949;1257;60347;-48
2023/10/06 08:37:50;;;;;;;38.70;4.30;;;;;;;16.02;100.00;100831.65;105843;1257;72938;-50
2023/10/06 08:40:22;;;;;;;4.90;3.20;;;;;;;15.93;100.00;100834.56;105872;1257;64428;-51
2023/10/06 08:42:51;;;;;;;6.70;3.30;;;;;;;15.70;98.15;100846.98;105859;1257;72785;-48
2023/10/06 08:45:22;;;;;;;6.30;2.70;;;;;;;15.46;100.00;100854.00;105833;1257;60094;-50
2023/10/06 08:47:50;;;;;;;17.80;2.90;;;;;;;15.21;99.20;100846.46;105894;1254;60779;-49
2023/10/06 08:50:32;;;;;;;5.30;3.00;;;;;;;15.01;97.32;100849.85;105883;1257;72993;-50
2023/10/06 08:53:01;;;;;;;12.40;2.80;;;;;;;14.91;95.66;100851.02;105832;1257;64695;-50
2023/10/06 08:55:28;;;;;;;14.30;2.40;;;;;;;14.89;99.08;100863.23;105900;1257;72594;-49
2023/10/06 08:57:58;;;;;;;7.00;3.00;;;;;;;14.88;100.00;100870.40;105832;1257;60351;-50
2023/10/06 09:00:31;;;;;;;4.90;2.90;;;;;;;14.81;100.00;100872.16;105837;1252;60283;-49
2023/10/06 09:03:07;;;;;;;10.10;3.50;;;;;;;14.76;100.00;100857.73;105861;1258;73159;-49
2023/10/06 09:05:39;;;;;;;7.30;3.60;;;;;;;14.80;100.00;100840.58;105910;1255;64669;-50
2023/10/06 09:08:08;;;;;;;6.50;3.10;;;;;;;14.96;100.00;100821.69;105697;1254;72445;-49
2023/10/06 09:10:40;;;;;;;13.20;3.10;;;;;;;15.22;100.00;100811.48;105809;1257;59647;-49
2023/10/06 09:13:10;;;;;;;26.70;3.80;;;;;;;15.46;100.00;100811.40;105883;1258;60230;-50
2023/10/06 09:15:43;;;;;;;24.50;4.10;;;;;;;15.57;100.00;100826.52;105739;1257;74030;-50
2023/10/06 09:18:34;;;;;;;11.10;3.20;;;;;;;15.50;100.00;100846.90;105873;1257;64752;-51
2023/10/06 09:21:14;;;;;;;40.10;4.50;;;;;;;15.44;100.00;100845.38;105612;1257;71704;-50
2023/10/06 09:23:41;;;;;;;21.80;4.30;;;;;;;15.35;100.00;100856.60;105794;1254;60430;-52
2023/10/06 09:26:12;;;;;;;7.20;2.50;;;;;;;15.33;100.00;100858.80;105894;1254;60406;-51
2023/10/06 09:29:01;;;;;;;10.20;2.60;;;;;;;15.32;100.00;100851.16;105859;1257;72800;-49
2023/10/06 09:31:35;;;;;;;72.60;5.90;;;;;;;15.26;94.74;100841.42;105879;1257;64638;-50
2023/10/06 09:34:07;;;;;;;59.60;4.30;;;;;;;15.16;87.06;100850.44;105862;1254;72737;-50
2023/10/06 09:36:35;;;;;;;13.00;2.60;;;;;;;15.04;88.05;100873.04;105939;1257;60422;-50
2023/10/06 09:39:19;;;;;;;;;;;;;;;14.98;88.92;100879.84;105865;1254;59369;-50
2023/10/06 09:41:47;;;;;;;23.30;3.90;;;;;;;14.95;98.35;100897.64;105875;1254;73824;-49
2023/10/06 09:44:17;;;;;;;9.50;3.20;;;;;;;14.93;100.00;100899.95;105661;1259;64564;-49
2023/10/06 09:46:45;;;;;;;12.60;3.10;;;;;;;14.86;100.00;100889.92;105825;1254;72263;-49
2023/10/06 09:49:15;;;;;;;16.80;2.70;;;;;;;14.79;100.00;100870.66;105665;1260;60450;-51
2023/10/06 09:51:42;;;;;;;8.70;3.40;;;;;;;14.75;100.00;100849.41;105762;1253;60415;-48
2023/10/06 09:54:09;;;;;;;8.40;2.70;;;;;;;14.72;100.00;100841.86;105678;1259;73966;-50
2023/10/06 09:56:37;;;;;;;11.70;3.40;;;;;;;14.80;100.00;100838.48;105819;1257;64699;-49
2023/10/06 09:59:04;;;;;;;24.00;3.30;;;;;;;15.09;100.00;100830.15;105902;1254;72631;-49
2023/10/06 10:01:32;;;;;;;6.60;2.50;;;;;;;15.48;100.00;100813.05;105831;1257;61052;-50
2023/10/06 10:04:00;;;;;;;12.80;2.80;;;;;;;15.85;96.75;100802.27;105758;1254;61120;-49
2023/10/06 10:06:27;;;;;;;11.80;2.30;;;;;;;16.01;85.53;100812.02;105670;1259;73887;-49
2023/10/06 10:08:54;;;;;;;10.00;1.90;;;;;;;16.06;76.76;100793.73;105663;1259;64554;-49
2023/10/06 10:11:33;;;;;;;6.90;2.70;;;;;;;16.11;74.60;100813.55;105834;1254;74611;-52
2023/10/06 10:14:18;;;;;;;36.50;3.90;;;;;;;16.26;73.25;100816.16;105877;1257;60318;-50
2023/10/06 10:17:23;;;;;;;16.80;2.70;;;;;;;16.26;71.80;100819.47;105854;1253;60629;-50
2023/10/06 10:19:51;;;;;;;13.10;2.80;;;;;;;16.14;74.13;100886.27;105897;1256;74689;-51
2023/10/06 10:22:21;;;;;;;12.80;2.30;;;;;;;16.21;74.80;100875.90;105735;1259;64508;-51
2023/10/06 10:24:48;;;;;;;8.50;2.30;;;;;;;16.26;74.76;100879.40;105706;1254;71795;-51
2023/10/06 10:27:37;;;;;;;32.80;4.30;;;;;;;16.36;75.68;100876.93;105672;1256;60553;-51
2023/10/06 10:30:09;;;;;;;49.60;4.80;;;;;;;16.47;71.25;100814.52;105667;1254;60825;-49
2023/10/06 10:32:41;;;;;;;12.40;2.40;;;;;;;16.55;70.13;100823.46;105705;1257;73653;-50
2023/10/06 10:35:14;;;;;;;26.60;2.70;;;;;;;16.54;69.57;100821.94;105757;1254;64668;-49
2023/10/06 10:37:52;;;;;;;22.30;2.70;;;;;;;16.44;70.52;100845.83;105880;1254;72146;-50
2023/10/06 10:40:21;;;;;;;68.20;4.40;;;;;;;16.47;69.71;100839.09;105874;1258;60450;-50
2023/10/06 10:42:51;;;;;;;191.20;9.40;;;;;;;16.57;69.73;100842.91;105708;1260;60438;-49
2023/10/06 10:45:36;;;;;;;97.50;5.80;;;;;;;16.67;69.04;100834.33;105689;1254;72695;-50
2023/10/06 10:48:13;;;;;;;67.50;5.00;;;;;;;16.60;69.14;100847.15;105857;1257;64345;-51
2023/10/06 10:51:01;;;;;;;97.50;6.20;;;;;;;16.59;69.66;100861.99;105881;1256;72616;-48
2023/10/06 10:53:37;;;;;;;74.90;5.50;;;;;;;16.59;68.90;100841.45;105864;1257;61078;-50
2023/10/06 10:56:06;;;;;;;45.00;4.30;;;;;;;16.53;69.74;100872.84;105720;1259;60562;-50
2023/10/06 10:58:47;;;;;;;19.80;2.20;;;;;;;16.59;71.60;100898.57;105891;1257;72916;-51
2023/10/06 11:01:37;;;;;;;9.20;2.40;;;;;;;16.74;68.13;100816.46;105887;1257;64429;-48
2023/10/06 11:07:15;;;;;;;38.00;3.40;;;;;;;16.87;65.42;100766.30;105541;1257;60434;-52
2023/10/06 11:09:48;;;;;;;15.90;2.90;;;;;;;16.80;66.99;100846.56;105936;1254;61179;-52
2023/10/06 11:12:16;;;;;;;11.90;2.80;;;;;;;16.91;66.38;100828.89;105830;1257;74893;-49
2023/10/06 11:14:49;;;;;;;24.90;2.80;;;;;;;17.05;65.80;100814.27;105915;1257;64787;-51
2023/10/06 11:17:24;;;;;;;20.60;2.50;;;;;;;17.11;64.51;100767.48;105887;1254;71295;-51
2023/10/06 11:20:27;;;;;;;;;;;;;;;16.90;65.15;100825.64;105833;1257;61537;-50
2023/10/06 11:23:01;;;;;;;38.30;4.00;;;;;;;16.83;67.46;100896.84;105891;1258;60925;-50
2023/10/06 11:25:29;;;;;;;46.60;3.70;;;;;;;16.99;67.10;100862.44;105869;1254;73796;-50
2023/10/06 11:28:08;;;;;;;72.20;4.10;;;;;;;16.98;65.66;100827.61;105866;1254;64660;-50
2023/10/06 11:30:38;;;;;;;37.60;3.50;;;;;;;16.82;65.73;100841.98;105707;1254;72512;-51
2023/10/06 11:33:07;;;;;;;87.00;5.30;;;;;;;16.79;66.52;100869.25;105843;1254;60882;-51
2023/10/06 11:35:34;;;;;;;41.30;3.20;;;;;;;16.84;65.17;100830.41;105857;1257;60464;-50